Terminal Aerodrome Forecast
Issued by NWS Wilmington, NC

Home | Current Version | Previous Version | Text Only | Print | Product List | Glossary On
Versions: 1 2 3 4 5 6 7 8 9 10 11 12 13 14 15 16 17 18
000
FTUS42 KILM 021700
TAFFLO
TAF
KFLO 021720Z 0218/0318 20006KT P6SM SCT045
     FM022200 18006KT P6SM VCTS SCT050CB SCT100
     FM030100 21005KT P6SM FEW050 SCT250
     FM031200 25004KT P6SM SCT250=

USA.gov is the U.S. government's official web portal to all federal, state and local government web resources and services.